Time;durP1;ratioP1;P1;durP2;ratioP2;P2;SDS_P1;SDS_P2;PMS_P1;PMS_P2;Temp;Humidity;BMP_temperature;BMP_pressure;BME280_temperature;BME280_humidity;BME280_pressure;Samples;Min_cycle;Max_cycle;Signal;HPM_P1;HPM_P2
2022/02/28 00:00:59;;;;;;;26.08;22.55;;;2.10;99.90;;;;;;4972664;28;20497;-76
2022/02/28 00:03:26;;;;;;;28.42;24.90;;;2.10;99.90;;;;;;4973637;28;20062;-77
2022/02/28 00:05:53;;;;;;;28.15;24.65;;;2.10;99.90;;;;;;4982987;28;20454;-75
2022/02/28 00:08:20;;;;;;;32.13;24.48;;;2.00;99.90;;;;;;4994554;28;20054;-77
2022/02/28 00:10:47;;;;;;;26.83;23.52;;;2.00;99.90;;;;;;5011411;28;20257;-77
2022/02/28 00:13:14;;;;;;;30.10;24.45;;;2.00;99.90;;;;;;5013815;28;20045;-77
2022/02/28 00:15:41;;;;;;;31.80;25.42;;;2.00;99.90;;;;;;5003451;28;20462;-76
2022/02/28 00:18:08;;;;;;;28.15;25.10;;;2.10;99.90;;;;;;4992256;28;20254;-75
2022/02/28 00:20:34;;;;;;;29.77;24.50;;;2.10;99.90;;;;;;4988462;28;20120;-73
2022/02/28 00:23:02;;;;;;;28.42;24.95;;;2.10;99.90;;;;;;4993232;28;20042;-74
2022/02/28 00:25:31;;;;;;;29.50;23.10;;;2.00;99.90;;;;;;4990648;28;20046;-74
2022/02/28 00:28:00;;;;;;;33.00;25.83;;;2.00;99.90;;;;;;4993467;28;20042;-75
2022/02/28 00:30:27;;;;;;;33.15;26.15;;;1.90;99.90;;;;;;4990031;28;20050;-73
2022/02/28 00:32:54;;;;;;;30.95;25.52;;;1.90;99.90;;;;;;4991897;28;20699;-77
2022/02/28 00:35:21;;;;;;;29.80;26.15;;;1.90;99.90;;;;;;4991624;28;20470;-76
2022/02/28 00:37:47;;;;;;;30.80;24.88;;;1.90;99.90;;;;;;5004019;28;20048;-76
2022/02/28 00:40:14;;;;;;;28.48;25.13;;;1.80;99.90;;;;;;5008140;28;20171;-76
2022/02/28 00:42:41;;;;;;;32.55;25.88;;;1.80;99.90;;;;;;4990659;28;20100;-76
2022/02/28 00:45:08;;;;;;;34.13;25.75;;;1.80;99.90;;;;;;4992413;28;20062;-77
2022/02/28 00:47:38;;;;;;;27.33;24.05;;;1.80;99.90;;;;;;4991195;28;20045;-76
2022/02/28 00:50:07;;;;;;;28.55;24.52;;;1.80;99.90;;;;;;4991832;28;20542;-76
2022/02/28 00:52:34;;;;;;;33.80;25.17;;;1.80;99.90;;;;;;4975210;28;20061;-75
2022/02/28 00:55:02;;;;;;;29.10;23.73;;;1.80;99.90;;;;;;4993777;28;20111;-76
2022/02/28 00:57:29;;;;;;;30.15;24.33;;;1.80;99.90;;;;;;4984479;28;20046;-77
2022/02/28 00:59:56;;;;;;;28.23;23.30;;;1.80;99.90;;;;;;4971342;28;20149;-76
2022/02/28 01:02:23;;;;;;;31.27;23.08;;;1.70;99.90;;;;;;4971979;28;20128;-76
2022/02/28 01:04:50;;;;;;;27.75;23.85;;;1.70;99.90;;;;;;4975997;28;20146;-75
2022/02/28 01:07:18;;;;;;;27.27;24.23;;;1.70;99.90;;;;;;4990316;28;20259;-76
2022/02/28 01:09:46;;;;;;;30.08;24.58;;;1.70;99.90;;;;;;4994522;28;20277;-79
2022/02/28 01:12:12;;;;;;;27.73;21.48;;;1.70;99.90;;;;;;4990134;28;20062;-76
2022/02/28 01:14:39;;;;;;;28.85;22.83;;;1.70;99.90;;;;;;4992928;28;20054;-77
2022/02/28 01:17:06;;;;;;;25.33;21.50;;;1.70;99.90;;;;;;4992550;28;20049;-77
2022/02/28 01:19:34;;;;;;;29.40;23.50;;;1.70;99.90;;;;;;4991167;28;20079;-76
2022/02/28 01:22:02;;;;;;;27.45;21.90;;;1.80;99.90;;;;;;4991158;28;20046;-77
2022/02/28 01:24:29;;;;;;;33.58;24.42;;;1.80;99.90;;;;;;4993349;28;20254;-76
2022/02/28 01:26:56;;;;;;;30.73;25.08;;;1.80;99.90;;;;;;4991455;28;20050;-75
2022/02/28 01:29:23;;;;;;;25.35;22.42;;;1.70;99.90;;;;;;4991737;28;20465;-76
2022/02/28 01:31:51;;;;;;;25.50;21.77;;;1.70;99.90;;;;;;4989803;28;20050;-76
2022/02/28 01:34:19;;;;;;;31.45;24.70;;;1.60;99.90;;;;;;4974691;28;20105;-75
2022/02/28 01:36:46;;;;;;;30.98;25.27;;;1.60;99.90;;;;;;4990904;28;20496;-75
2022/02/28 01:39:13;;;;;;;29.67;25.20;;;1.50;99.90;;;;;;4994491;28;20033;-76
2022/02/28 01:41:40;;;;;;;26.38;23.20;;;1.40;99.90;;;;;;4988793;28;20057;-76
2022/02/28 01:44:08;;;;;;;30.20;23.45;;;1.40;99.90;;;;;;4992162;28;20470;-75
2022/02/28 01:46:38;;;;;;;32.38;25.02;;;1.40;99.90;;;;;;4990575;28;20042;-76
2022/02/28 01:49:05;;;;;;;28.55;24.85;;;1.40;99.90;;;;;;4991185;28;20037;-77
2022/02/28 01:51:35;;;;;;;26.42;23.45;;;1.40;99.90;;;;;;4990747;28;20050;-77
2022/02/28 01:54:03;;;;;;;32.95;25.60;;;1.40;99.90;;;;;;4990733;28;20073;-76
2022/02/28 01:56:30;;;;;;;29.63;25.60;;;1.30;99.90;;;;;;4990781;28;20066;-76
2022/02/28 01:58:59;;;;;;;39.80;25.98;;;1.20;99.90;;;;;;4990049;28;20111;-76
2022/02/28 02:01:27;;;;;;;29.65;24.08;;;1.20;99.90;;;;;;4988921;28;20137;-76
2022/02/28 02:03:54;;;;;;;35.22;23.55;;;1.20;99.90;;;;;;5005355;28;20447;-75
2022/02/28 02:06:21;;;;;;;28.35;23.90;;;1.20;99.90;;;;;;4993976;28;20050;-77
2022/02/28 02:08:49;;;;;;;30.15;24.20;;;1.10;99.90;;;;;;4993968;28;20081;-75
2022/02/28 02:11:17;;;;;;;32.83;25.70;;;1.20;99.90;;;;;;4973270;28;20565;-76
2022/02/28 02:13:46;;;;;;;33.58;25.05;;;1.20;99.90;;;;;;4990225;28;20048;-75
2022/02/28 02:16:14;;;;;;;36.47;25.15;;;1.10;99.90;;;;;;4974380;28;20494;-75
2022/02/28 02:18:41;;;;;;;32.22;25.17;;;1.10;99.90;;;;;;4990631;28;20095;-75
2022/02/28 02:21:07;;;;;;;31.17;25.45;;;0.90;99.90;;;;;;4989532;28;20233;-75
2022/02/28 02:23:34;;;;;;;35.13;25.52;;;0.90;99.90;;;;;;4973477;28;20050;-75
2022/02/28 02:26:01;;;;;;;32.63;26.85;;;0.80;99.90;;;;;;4991218;28;20077;-75
2022/02/28 02:28:29;;;;;;;28.95;25.20;;;0.80;99.90;;;;;;4973905;28;20041;-75
2022/02/28 02:30:57;;;;;;;32.80;25.98;;;0.70;99.90;;;;;;4989555;28;20290;-74
2022/02/28 02:33:25;;;;;;;34.75;26.13;;;0.60;99.90;;;;;;4989895;28;20054;-75
2022/02/28 02:35:57;;;;;;;34.83;25.95;;;0.60;99.90;;;;;;4988531;28;20707;-75
2022/02/28 02:38:27;;;;;;;31.02;26.35;;;0.50;99.90;;;;;;4977178;28;20627;-74
2022/02/28 02:40:54;;;;;;;35.22;26.90;;;0.40;99.90;;;;;;4972306;28;20370;-75
2022/02/28 02:43:21;;;;;;;33.88;25.45;;;0.30;99.90;;;;;;4973368;28;20479;-75
2022/02/28 02:45:49;;;;;;;37.50;25.33;;;0.20;99.90;;;;;;4989779;28;20088;-74
2022/02/28 02:48:19;;;;;;;36.75;25.00;;;0.20;99.90;;;;;;4988607;28;20065;-74
2022/02/28 02:50:53;;;;;;;36.17;25.02;;;0.00;99.90;;;;;;4989014;28;20054;-75
2022/02/28 02:53:20;;;;;;;36.45;25.45;;;-0.10;99.90;;;;;;4988517;28;20935;-75
2022/02/28 02:55:48;;;;;;;37.08;24.50;;;-0.10;99.90;;;;;;5000758;28;20183;-73
2022/02/28 02:58:17;;;;;;;36.88;25.42;;;-0.10;99.90;;;;;;4998493;28;20514;-73
2022/02/28 03:00:49;;;;;;;37.47;24.48;;;-0.10;99.90;;;;;;4988475;28;20707;-74
2022/02/28 03:03:22;;;;;;;41.47;25.65;;;-0.20;99.90;;;;;;4989891;28;20754;-75
2022/02/28 03:05:51;;;;;;;31.23;23.65;;;-0.10;99.90;;;;;;4986678;28;20128;-75
2022/02/28 03:08:21;;;;;;;34.05;24.52;;;-0.20;99.90;;;;;;4985128;28;20056;-75
2022/02/28 03:10:48;;;;;;;34.17;23.25;;;-0.10;99.90;;;;;;4992765;28;20633;-75
2022/02/28 03:13:16;;;;;;;36.50;24.80;;;-0.10;99.90;;;;;;4989458;28;20137;-75
2022/02/28 03:15:43;;;;;;;30.70;21.92;;;0.00;99.90;;;;;;4991445;28;20053;-75
2022/02/28 03:18:13;;;;;;;29.48;20.05;;;0.10;99.90;;;;;;4992651;28;20310;-77
2022/02/28 03:20:40;;;;;;;28.38;20.52;;;0.10;99.90;;;;;;4991366;28;20562;-77
2022/02/28 03:23:08;;;;;;;33.28;22.40;;;0.30;99.90;;;;;;4993411;28;20108;-75
2022/02/28 03:25:35;;;;;;;27.70;21.90;;;0.40;99.90;;;;;;4992903;28;20061;-76
2022/02/28 03:28:04;;;;;;;29.48;21.10;;;0.50;99.90;;;;;;4993252;28;20077;-73
2022/02/28 03:30:32;;;;;;;27.58;22.38;;;0.60;99.90;;;;;;4989067;28;20066;-73
2022/02/28 03:32:58;;;;;;;29.30;22.10;;;0.70;99.90;;;;;;4991129;28;20050;-75
2022/02/28 03:35:29;;;;;;;27.67;22.58;;;0.70;99.90;;;;;;4991032;28;20139;-75
2022/02/28 03:37:57;;;;;;;28.88;23.30;;;0.70;99.90;;;;;;4976833;28;20042;-75
2022/02/28 03:40:23;;;;;;;35.10;23.35;;;0.60;99.90;;;;;;4996948;28;20258;-75
2022/02/28 03:42:50;;;;;;;32.70;23.73;;;0.50;99.90;;;;;;4991994;28;20069;-76
2022/02/28 03:45:18;;;;;;;26.17;21.27;;;0.50;99.90;;;;;;4992492;28;20057;-77
2022/02/28 03:47:45;;;;;;;29.88;22.17;;;0.50;99.90;;;;;;4992419;28;20514;-75
2022/02/28 03:50:42;;;;;;;29.17;23.85;;;0.50;99.90;;;;;;4993278;28;20042;-75
2022/02/28 03:53:09;;;;;;;29.30;23.35;;;0.40;99.90;;;;;;4992252;28;20050;-74
2022/02/28 03:55:37;;;;;;;29.88;24.23;;;0.40;99.90;;;;;;4991537;28;20042;-74
2022/02/28 03:58:03;;;;;;;32.25;24.02;;;0.50;99.90;;;;;;4992299;28;20057;-76
2022/02/28 04:00:31;;;;;;;30.52;23.40;;;0.50;99.90;;;;;;4991986;28;20092;-76
2022/02/28 04:02:58;;;;;;;27.38;23.35;;;0.50;99.90;;;;;;4991708;28;20076;-76
2022/02/28 04:05:25;;;;;;;37.08;26.73;;;0.40;99.90;;;;;;4989304;28;22458;-76
2022/02/28 04:07:57;;;;;;;28.95;23.80;;;0.30;99.90;;;;;;4992423;28;20731;-76
2022/02/28 04:10:24;;;;;;;30.20;24.02;;;0.20;99.90;;;;;;5004231;28;20053;-75
2022/02/28 04:12:51;;;;;;;29.38;24.40;;;0.20;99.90;;;;;;4975387;28;20153;-76
2022/02/28 04:15:18;;;;;;;36.78;25.58;;;0.20;99.90;;;;;;4993233;28;20606;-76
2022/02/28 04:17:45;;;;;;;30.17;23.05;;;0.10;99.90;;;;;;4992001;28;20145;-76
2022/02/28 04:20:27;;;;;;;30.73;23.88;;;0.00;99.90;;;;;;4991115;28;20069;-76
2022/02/28 04:22:54;;;;;;;32.85;25.00;;;0.00;99.90;;;;;;4996813;28;20115;-76
2022/02/28 04:25:21;;;;;;;34.28;26.30;;;-0.10;99.90;;;;;;4999649;28;20050;-76
2022/02/28 04:27:51;;;;;;;33.60;24.38;;;-0.10;99.90;;;;;;4990993;28;20486;-76
2022/02/28 04:30:20;;;;;;;31.48;24.73;;;-0.30;99.90;;;;;;4988342;28;20061;-76
2022/02/28 04:32:47;;;;;;;30.70;23.83;;;-0.30;99.90;;;;;;4990796;28;20064;-76
2022/02/28 04:35:15;;;;;;;36.72;25.15;;;-0.20;99.90;;;;;;4990655;28;20122;-77
2022/02/28 04:37:50;;;;;;;35.03;24.30;;;-0.20;99.90;;;;;;4990300;28;20421;-76
2022/02/28 04:40:17;;;;;;;37.40;25.48;;;-0.20;99.90;;;;;;5008853;28;20053;-76
2022/02/28 04:42:44;;;;;;;31.42;23.70;;;-0.10;99.90;;;;;;4986501;28;20522;-76
2022/02/28 04:45:13;;;;;;;29.05;25.00;;;-0.20;99.90;;;;;;4992861;28;20472;-76
2022/02/28 04:47:41;;;;;;;33.83;24.63;;;-0.20;99.90;;;;;;4988099;28;20103;-76
2022/02/28 04:50:36;;;;;;;29.77;23.48;;;-0.10;99.90;;;;;;4993527;28;20694;-76
2022/02/28 04:53:04;;;;;;;30.50;24.92;;;-0.10;99.90;;;;;;4988906;28;20046;-77
2022/02/28 04:55:31;;;;;;;30.90;23.80;;;-0.20;99.90;;;;;;4973847;28;20117;-77
2022/02/28 04:57:58;;;;;;;37.53;24.80;;;-0.20;99.90;;;;;;4989909;28;20099;-76
2022/02/28 05:00:54;;;;;;;34.17;23.73;;;-0.20;99.90;;;;;;4954326;28;20047;-76
2022/02/28 05:03:21;;;;;;;32.33;22.77;;;-0.10;99.90;;;;;;4986990;28;20064;-76
2022/02/28 05:05:49;;;;;;;32.80;23.77;;;0.00;99.90;;;;;;4988317;28;20608;-76
2022/02/28 05:08:16;;;;;;;30.05;21.80;;;-0.10;99.90;;;;;;4972478;28;20049;-77
2022/02/28 05:10:43;;;;;;;28.30;24.38;;;0.00;99.90;;;;;;4988578;28;20568;-77
2022/02/28 05:13:14;;;;;;;29.92;24.27;;;0.10;99.90;;;;;;4973404;28;20088;-77
2022/02/28 05:15:41;;;;;;;30.02;24.08;;;0.10;99.90;;;;;;4971101;28;20115;-76
2022/02/28 05:18:09;;;;;;;28.30;24.67;;;0.20;99.90;;;;;;4989417;28;20041;-76
2022/02/28 05:20:36;;;;;;;27.48;24.20;;;0.30;99.90;;;;;;4988712;28;20081;-76
2022/02/28 05:23:03;;;;;;;30.73;25.17;;;0.30;99.90;;;;;;4988222;28;20750;-76
2022/02/28 05:25:30;;;;;;;30.13;25.15;;;0.30;99.90;;;;;;4989440;28;20144;-77
2022/02/28 05:28:10;;;;;;;33.20;25.45;;;0.30;99.90;;;;;;4989033;28;20062;-76
2022/02/28 05:30:37;;;;;;;28.35;25.27;;;0.20;99.90;;;;;;4987225;28;20152;-77
2022/02/28 05:33:08;;;;;;;28.85;25.20;;;0.10;99.90;;;;;;4989779;28;20461;-76
2022/02/28 05:35:37;;;;;;;29.38;26.27;;;0.10;99.90;;;;;;4989089;28;20070;-76
2022/02/28 05:38:15;;;;;;;28.70;25.60;;;0.00;99.90;;;;;;4989312;28;20776;-77
2022/02/28 05:40:46;;;;;;;31.42;26.30;;;0.00;99.90;;;;;;4988430;28;20057;-76
2022/02/28 05:43:14;;;;;;;30.25;26.63;;;0.00;99.90;;;;;;4994505;28;20053;-75
2022/02/28 05:45:41;;;;;;;29.30;25.48;;;0.00;99.90;;;;;;4997996;28;20038;-75
2022/02/28 05:48:27;;;;;;;39.50;27.13;;;0.00;99.90;;;;;;4974754;28;20042;-76
2022/02/28 05:50:54;;;;;;;28.80;25.50;;;-0.10;99.90;;;;;;4989092;28;20050;-76
2022/02/28 05:53:21;;;;;;;32.42;26.60;;;-0.10;99.90;;;;;;4990419;28;20466;-76
2022/02/28 05:55:48;;;;;;;34.50;27.35;;;-0.20;99.90;;;;;;4990947;28;20046;-76
2022/02/28 05:58:14;;;;;;;32.97;26.92;;;-0.30;99.90;;;;;;4990893;28;20054;-76
2022/02/28 06:00:41;;;;;;;31.52;27.52;;;-0.30;99.90;;;;;;4990004;28;20142;-77
2022/02/28 06:03:08;;;;;;;35.70;26.55;;;-0.30;99.90;;;;;;4989136;28;20062;-76
2022/02/28 06:05:35;;;;;;;32.15;26.88;;;-0.40;99.90;;;;;;4989161;28;20136;-76
2022/02/28 06:08:02;;;;;;;37.83;27.63;;;-0.40;99.90;;;;;;4991109;28;20726;-76
2022/02/28 06:10:29;;;;;;;32.63;27.45;;;-0.50;99.90;;;;;;4990373;28;20050;-75
2022/02/28 06:12:55;;;;;;;31.35;27.83;;;-0.40;99.90;;;;;;4990844;28;20057;-76
2022/02/28 06:15:29;;;;;;;31.95;25.67;;;-0.50;99.90;;;;;;4987139;28;20041;-76
2022/02/28 06:18:00;;;;;;;30.88;25.63;;;-0.50;99.90;;;;;;4990816;28;20835;-76
2022/02/28 06:20:28;;;;;;;37.20;27.83;;;-0.60;99.90;;;;;;4988931;28;20073;-76
2022/02/28 06:22:55;;;;;;;32.08;26.73;;;-0.70;99.90;;;;;;4990252;28;20407;-76
2022/02/28 06:25:22;;;;;;;35.05;29.40;;;-0.70;99.90;;;;;;4973717;28;20422;-76
2022/02/28 06:27:51;;;;;;;39.10;30.63;;;-0.60;99.90;;;;;;4991831;28;20100;-76
2022/02/28 06:30:21;;;;;;;36.95;30.23;;;-0.60;99.90;;;;;;4988330;28;20534;-76
2022/02/28 06:32:48;;;;;;;41.10;30.58;;;-0.60;99.90;;;;;;4989011;28;20049;-75
2022/02/28 06:35:15;;;;;;;32.15;27.98;;;-0.60;99.90;;;;;;4990605;28;20068;-74
2022/02/28 06:37:42;;;;;;;34.30;28.15;;;-0.60;99.90;;;;;;4991885;28;20545;-74
2022/02/28 06:40:09;;;;;;;38.33;29.77;;;-0.60;99.90;;;;;;4989028;28;20041;-74
2022/02/28 06:42:36;;;;;;;39.30;30.67;;;-0.70;99.90;;;;;;4988939;28;20061;-74
2022/02/28 06:45:04;;;;;;;37.45;30.00;;;-0.80;99.90;;;;;;5005323;28;20495;-74
2022/02/28 06:47:31;;;;;;;37.13;29.77;;;-0.80;99.90;;;;;;5002980;28;20255;-74
2022/02/28 06:49:58;;;;;;;36.47;29.90;;;-0.90;99.90;;;;;;4988893;28;20137;-74
2022/02/28 06:52:25;;;;;;;40.30;29.42;;;-1.00;99.90;;;;;;4988644;28;20541;-74
2022/02/28 06:54:56;;;;;;;35.60;28.50;;;-0.90;99.90;;;;;;4954308;28;20054;-74
2022/02/28 06:57:24;;;;;;;33.60;28.48;;;-0.90;99.90;;;;;;4969652;28;20620;-73
2022/02/28 06:59:51;;;;;;;34.63;28.17;;;-0.90;99.90;;;;;;4970871;28;20058;-74
2022/02/28 07:02:18;;;;;;;42.13;31.10;;;-0.90;99.90;;;;;;4969880;28;20038;-73
2022/02/28 07:04:49;;;;;;;39.10;30.95;;;-0.90;99.90;;;;;;4985274;28;20137;-73
2022/02/28 07:07:17;;;;;;;43.10;31.13;;;-0.90;99.90;;;;;;4990426;28;20511;-73
2022/02/28 07:09:47;;;;;;;41.10;31.02;;;-0.80;99.90;;;;;;4987593;28;20053;-73
2022/02/28 07:12:14;;;;;;;37.90;29.75;;;-0.70;99.90;;;;;;4999992;28;20046;-73
2022/02/28 07:14:42;;;;;;;40.08;31.30;;;-0.50;99.90;;;;;;4986233;28;20144;-73
2022/02/28 07:17:09;;;;;;;35.80;28.48;;;-0.50;99.90;;;;;;4987237;28;20038;-73
2022/02/28 07:19:36;;;;;;;37.42;31.48;;;-0.40;99.90;;;;;;5000313;28;20054;-73
2022/02/28 07:22:03;;;;;;;42.05;31.20;;;-0.50;99.90;;;;;;4987815;28;20132;-73
2022/02/28 07:24:29;;;;;;;36.25;30.83;;;-0.50;99.90;;;;;;5003001;28;20053;-73
2022/02/28 07:26:56;;;;;;;38.10;31.73;;;-0.50;99.90;;;;;;5010073;28;20132;-74
2022/02/28 07:29:23;;;;;;;36.38;31.27;;;-0.40;99.90;;;;;;4991552;28;20046;-74
2022/02/28 07:31:50;;;;;;;34.63;29.35;;;-0.20;99.90;;;;;;4990856;28;20049;-73
2022/02/28 07:34:17;;;;;;;36.22;27.98;;;-0.10;99.90;;;;;;4973022;28;20119;-73
2022/02/28 07:36:43;;;;;;;26.23;23.67;;;0.20;99.90;;;;;;4990094;28;20050;-76
2022/02/28 07:39:11;;;;;;;30.17;26.95;;;0.40;99.90;;;;;;4989802;28;20038;-73
2022/02/28 07:41:38;;;;;;;33.03;29.48;;;0.70;99.90;;;;;;5010299;28;20555;-73
2022/02/28 07:44:06;;;;;;;33.30;29.80;;;0.80;99.90;;;;;;4994350;28;20056;-74
2022/02/28 07:46:33;;;;;;;33.17;29.73;;;1.00;99.90;;;;;;4990527;28;20111;-75
2022/02/28 07:49:00;;;;;;;34.10;30.92;;;1.20;99.90;;;;;;4991643;28;20308;-75
2022/02/28 07:51:27;;;;;;;35.85;32.35;;;1.30;99.90;;;;;;4991179;28;20673;-78
2022/02/28 07:53:53;;;;;;;35.22;31.67;;;1.40;99.90;;;;;;4990730;28;20129;-75
2022/02/28 07:56:20;;;;;;;36.13;32.53;;;1.60;99.90;;;;;;4965664;28;20054;-74
2022/02/28 07:58:47;;;;;;;35.72;32.13;;;1.80;99.90;;;;;;5003190;28;20058;-74
2022/02/28 08:01:14;;;;;;;37.03;33.47;;;1.90;99.90;;;;;;4969557;28;20484;-74
2022/02/28 08:03:41;;;;;;;36.53;33.25;;;1.90;99.90;;;;;;4974973;28;20050;-74
2022/02/28 08:06:08;;;;;;;36.70;33.45;;;2.00;99.90;;;;;;4967447;28;20050;-74
2022/02/28 08:08:35;;;;;;;35.55;32.30;;;2.10;99.90;;;;;;4964935;28;20237;-74
2022/02/28 08:11:03;;;;;;;37.17;34.03;;;2.20;99.90;;;;;;4977936;28;20053;-73
2022/02/28 08:13:30;;;;;;;36.35;33.00;;;2.30;99.90;;;;;;4992591;28;20045;-74
2022/02/28 08:15:59;;;;;;;39.63;36.08;;;2.40;99.90;;;;;;4994939;28;20036;-75
2022/02/28 08:18:26;;;;;;;36.45;33.22;;;2.50;99.90;;;;;;4994178;28;20041;-77
2022/02/28 08:20:53;;;;;;;34.42;31.55;;;2.60;99.90;;;;;;4976901;28;20053;-75
2022/02/28 08:23:20;;;;;;;39.35;35.63;;;2.70;99.90;;;;;;4993225;28;20073;-74
2022/02/28 08:25:47;;;;;;;36.95;33.90;;;2.80;99.90;;;;;;4994163;28;20045;-74
2022/02/28 08:28:14;;;;;;;37.22;34.25;;;3.10;99.90;;;;;;4993235;28;20767;-76
2022/02/28 08:30:41;;;;;;;36.75;33.45;;;3.30;99.90;;;;;;4992897;28;20564;-76
2022/02/28 08:33:08;;;;;;;37.17;34.13;;;3.50;99.90;;;;;;4993679;28;20041;-75
2022/02/28 08:35:34;;;;;;;37.75;34.53;;;3.70;99.90;;;;;;4993962;28;20053;-76
2022/02/28 08:38:01;;;;;;;36.72;33.47;;;4.00;99.90;;;;;;4991812;28;20129;-77
2022/02/28 08:40:28;;;;;;;37.33;34.00;;;4.20;99.90;;;;;;5007748;28;20109;-76
2022/02/28 08:42:56;;;;;;;37.17;34.00;;;4.50;99.90;;;;;;5001065;28;20152;-74
2022/02/28 08:45:23;;;;;;;37.42;34.20;;;4.50;99.90;;;;;;4985425;28;20038;-74
2022/02/28 08:47:50;;;;;;;36.47;32.97;;;4.40;99.90;;;;;;4994557;28;20742;-75
2022/02/28 08:50:18;;;;;;;36.92;33.80;;;4.50;99.90;;;;;;4992149;28;20142;-76
2022/02/28 08:52:45;;;;;;;36.78;33.58;;;4.80;99.90;;;;;;4994013;28;20492;-73
2022/02/28 08:55:13;;;;;;;36.53;33.60;;;4.80;99.90;;;;;;4992853;28;20060;-76
2022/02/28 08:57:40;;;;;;;38.38;34.92;;;5.10;99.90;;;;;;4990935;28;20050;-75
2022/02/28 09:00:09;;;;;;;37.78;34.60;;;5.10;99.90;;;;;;4993739;28;20040;-76
2022/02/28 09:02:37;;;;;;;36.38;33.47;;;5.40;99.90;;;;;;4994390;28;20052;-74
2022/02/28 09:05:05;;;;;;;36.38;33.55;;;5.40;99.90;;;;;;4995324;28;20123;-73
2022/02/28 09:07:32;;;;;;;37.17;34.22;;;5.60;99.90;;;;;;5007367;28;20042;-71
2022/02/28 09:09:59;;;;;;;37.03;34.20;;;5.50;99.90;;;;;;5004904;28;20049;-73
2022/02/28 09:12:26;;;;;;;37.08;34.03;;;5.70;99.90;;;;;;4989668;28;20054;-74
2022/02/28 09:14:54;;;;;;;37.95;34.88;;;5.90;99.90;;;;;;4993727;28;20160;-75
2022/02/28 09:17:21;;;;;;;37.78;34.47;;;6.00;99.90;;;;;;4994697;28;20042;-74
2022/02/28 09:19:47;;;;;;;38.83;35.38;;;6.10;99.90;;;;;;4993730;28;20420;-74
2022/02/28 09:22:15;;;;;;;37.17;33.97;;;6.20;99.90;;;;;;4994803;28;20054;-73
2022/02/28 09:24:42;;;;;;;37.60;34.40;;;6.20;99.90;;;;;;4993022;28;20157;-75
2022/02/28 09:27:09;;;;;;;37.78;34.47;;;6.10;99.90;;;;;;4993514;28;20066;-74
2022/02/28 09:29:36;;;;;;;37.53;34.20;;;6.30;99.90;;;;;;4992697;28;20123;-74
2022/02/28 09:32:03;;;;;;;39.47;36.15;;;6.30;99.90;;;;;;4993399;28;20552;-74
2022/02/28 09:34:30;;;;;;;34.88;32.05;;;6.50;99.90;;;;;;4993693;28;20822;-74
2022/02/28 09:36:59;;;;;;;36.53;33.40;;;6.20;99.90;;;;;;4992821;28;20300;-75
2022/02/28 09:39:27;;;;;;;35.72;32.95;;;6.10;99.90;;;;;;4991632;28;20095;-74
2022/02/28 09:42:13;;;;;;;35.40;32.47;;;6.40;99.90;;;;;;4992812;28;20798;-77
2022/02/28 09:44:59;;;;;;;37.80;34.38;;;6.70;99.90;;;;;;4993010;28;20109;-76
2022/02/28 09:47:57;;;;;;;36.88;33.90;;;6.70;99.90;;;;;;4994621;28;20049;-72
2022/02/28 09:50:36;;;;;;;37.28;34.00;;;6.40;99.90;;;;;;4991559;28;20196;-76
2022/02/28 09:53:22;;;;;;;37.72;34.67;;;6.40;99.90;;;;;;4993551;28;20077;-74
2022/02/28 09:56:25;;;;;;;38.28;35.17;;;6.30;99.90;;;;;;4959668;28;20516;-75
2022/02/28 09:59:29;;;;;;;39.22;36.08;;;6.10;99.90;;;;;;4952347;28;20042;-76
2022/02/28 10:02:04;;;;;;;38.33;35.33;;;6.20;99.90;;;;;;5003149;28;20038;-74
2022/02/28 10:04:32;;;;;;;38.60;35.60;;;6.20;99.90;;;;;;5011038;28;20091;-74
2022/02/28 10:07:02;;;;;;;38.30;35.15;;;6.40;99.90;;;;;;4993112;28;20053;-73
2022/02/28 10:09:29;;;;;;;38.65;35.15;;;6.90;99.90;;;;;;4992302;28;20139;-75
2022/02/28 10:11:56;;;;;;;37.35;34.42;;;7.20;99.90;;;;;;4990266;28;20050;-75
2022/02/28 10:14:26;;;;;;;37.97;35.08;;;7.40;99.90;;;;;;4991886;28;20050;-74
2022/02/28 10:17:00;;;;;;;36.30;33.13;;;7.40;99.90;;;;;;4993741;28;20042;-73
2022/02/28 10:19:29;;;;;;;36.13;32.95;;;7.20;99.90;;;;;;4993477;28;20465;-74
2022/02/28 10:22:07;;;;;;;36.00;32.97;;;7.30;99.90;;;;;;4993218;28;20046;-71
2022/02/28 10:24:39;;;;;;;34.78;31.92;;;6.90;99.90;;;;;;4992676;28;20589;-77
2022/02/28 10:27:18;;;;;;;38.58;34.95;;;6.90;99.90;;;;;;4993789;28;20522;-75
2022/02/28 10:29:48;;;;;;;36.50;33.35;;;6.90;99.90;;;;;;4993907;28;20465;-76
2022/02/28 10:32:48;;;;;;;35.50;32.15;;;7.10;99.90;;;;;;4964695;28;20054;-77
2022/02/28 10:38:51;;;;;;;33.58;30.92;;;6.80;99.90;;;;;;4992952;28;20637;-79
2022/02/28 10:41:25;;;;;;;35.25;31.95;;;6.80;99.90;;;;;;4993396;28;20115;-76
2022/02/28 10:43:54;;;;;;;33.30;30.50;;;6.60;99.90;;;;;;4991424;28;20050;-74
2022/02/28 10:46:31;;;;;;;36.70;33.75;;;6.90;99.90;;;;;;4997864;28;20089;-76
2022/02/28 10:49:00;;;;;;;38.95;35.85;;;7.10;99.90;;;;;;4997163;28;20060;-71
2022/02/28 10:51:27;;;;;;;38.30;35.30;;;6.80;99.90;;;;;;5010518;28;20049;-73
2022/02/28 10:54:14;;;;;;;38.92;35.83;;;6.90;99.90;;;;;;5013524;28;20048;-76
2022/02/28 10:56:48;;;;;;;38.03;34.95;;;6.70;99.90;;;;;;5009145;28;20498;-75
2022/02/28 10:59:17;;;;;;;38.28;35.45;;;7.10;99.90;;;;;;4997793;28;20053;-76
2022/02/28 11:01:44;;;;;;;41.08;37.88;;;7.50;99.90;;;;;;4992255;28;20077;-76
2022/02/28 11:04:11;;;;;;;41.05;37.72;;;7.50;99.90;;;;;;4992078;28;20053;-74
2022/02/28 11:06:39;;;;;;;40.38;37.28;;;7.50;99.90;;;;;;4992275;28;20054;-75
2022/02/28 11:09:06;;;;;;;40.45;37.10;;;7.50;99.90;;;;;;4991365;28;20041;-76
2022/02/28 11:11:33;;;;;;;42.30;39.10;;;7.60;99.90;;;;;;5009093;28;20128;-74
2022/02/28 11:14:00;;;;;;;40.42;37.40;;;7.60;99.90;;;;;;4995953;28;20049;-80
2022/02/28 11:16:29;;;;;;;40.63;37.65;;;7.60;99.90;;;;;;5010787;28;20315;-77
2022/02/28 11:19:03;;;;;;;41.95;38.38;;;7.60;99.90;;;;;;4988735;28;20127;-77
2022/02/28 11:21:30;;;;;;;40.03;36.95;;;7.70;99.90;;;;;;4992039;28;20415;-76
2022/02/28 11:23:57;;;;;;;40.40;37.40;;;7.90;99.90;;;;;;4992623;28;20050;-74
2022/02/28 11:26:23;;;;;;;40.13;36.92;;;8.10;99.90;;;;;;4993315;28;20108;-77
2022/02/28 11:28:50;;;;;;;41.40;38.20;;;8.30;99.90;;;;;;5005089;28;20049;-76
2022/02/28 11:31:18;;;;;;;41.85;38.38;;;8.30;99.90;;;;;;4993157;28;20045;-74
2022/02/28 11:34:01;;;;;;;37.63;34.83;;;8.20;99.90;;;;;;4991171;28;20133;-72
2022/02/28 11:36:28;;;;;;;40.70;37.65;;;8.10;99.90;;;;;;4993567;28;20133;-76
2022/02/28 11:39:10;;;;;;;39.38;36.33;;;8.10;99.90;;;;;;4994764;28;20049;-71
2022/02/28 11:41:38;;;;;;;40.45;37.22;;;8.10;99.90;;;;;;4973299;28;20042;-75
2022/02/28 11:44:08;;;;;;;39.30;36.17;;;8.10;99.90;;;;;;4989929;28;20296;-75
2022/02/28 11:46:40;;;;;;;39.17;36.08;;;8.20;99.90;;;;;;4994502;28;20053;-75
2022/02/28 11:49:09;;;;;;;40.63;37.65;;;7.90;99.90;;;;;;4995218;28;20053;-75
2022/02/28 11:51:41;;;;;;;37.75;34.95;;;7.80;99.90;;;;;;4992351;28;20279;-76
2022/02/28 11:54:17;;;;;;;39.97;36.83;;;7.90;99.90;;;;;;4995792;28;20075;-76
2022/02/28 11:56:49;;;;;;;40.83;37.55;;;8.10;99.90;;;;;;4992994;28;20045;-71
2022/02/28 11:59:22;;;;;;;40.90;37.80;;;7.80;99.90;;;;;;4993865;28;20132;-74
2022/02/28 12:01:53;;;;;;;39.10;35.97;;;8.00;99.90;;;;;;4993625;28;20427;-76
2022/02/28 12:04:28;;;;;;;39.15;36.28;;;8.40;99.90;;;;;;4993703;28;20054;-74
2022/02/28 12:06:56;;;;;;;;;;;8.50;99.90;;;;;;4992718;28;20049;-75
2022/02/28 12:09:38;;;;;;;39.35;36.55;;;8.30;99.90;;;;;;4993317;28;19952;-75
2022/02/28 12:12:33;;;;;;;39.13;35.88;;;8.30;99.90;;;;;;4991505;28;20054;-76
2022/02/28 12:15:01;;;;;;;39.33;36.03;;;8.70;99.90;;;;;;4991704;28;20060;-76
2022/02/28 12:51:31;;;;;;;39.47;36.55;;;8.50;99.90;;;;;;5052632;27;20365;-76
2022/02/28 12:54:11;;;;;;;40.58;37.55;;;8.90;99.90;;;;;;5033034;28;20402;-74
2022/02/28 12:56:58;;;;;;;39.08;36.05;;;8.90;99.90;;;;;;5052577;23;20038;-79
2022/02/28 12:59:45;;;;;;;38.15;35.45;;;8.90;99.90;;;;;;5041385;28;20162;-81
2022/02/28 13:02:15;;;;;;;38.80;35.72;;;8.80;99.90;;;;;;5023341;28;20046;-81
2022/02/28 13:04:53;;;;;;;39.25;35.95;;;8.80;99.90;;;;;;5019655;28;20041;-80
2022/02/28 13:07:21;;;;;;;40.25;37.10;;;9.00;99.90;;;;;;5018971;28;20348;-81
2022/02/28 13:09:47;;;;;;;41.60;38.45;;;8.90;99.90;;;;;;5004279;28;20045;-80
2022/02/28 13:12:24;;;;;;;42.03;38.53;;;9.00;99.90;;;;;;4982465;28;20046;-81
2022/02/28 13:14:55;;;;;;;39.33;36.28;;;8.90;99.90;;;;;;5013090;28;20102;-80
2022/02/28 13:17:27;;;;;;;38.72;35.65;;;9.00;99.90;;;;;;5010288;28;20072;-80
2022/02/28 13:19:56;;;;;;;42.38;38.75;;;9.10;99.90;;;;;;4991542;28;20425;-81
2022/02/28 13:22:26;;;;;;;40.13;36.83;;;9.00;99.90;;;;;;4991770;28;20045;-82
2022/02/28 13:24:54;;;;;;;39.58;36.30;;;8.80;99.90;;;;;;4995568;28;20041;-81